Time;durP1;ratioP1;P1;durP2;ratioP2;P2;SDS_P1;SDS_P2;PMS_P1;PMS_P2;Temp;Humidity;BMP_temperature;BMP_pressure;BME280_temperature;BME280_humidity;BME280_pressure;Samples;Min_cycle;Max_cycle;Signal;HPM_P1;HPM_P2
2021/09/03 00:01:59;;;;;;;34.40;29.10;;;;;;;12.88;72.32;101135.81;118289;1194;21812;-77
2021/09/03 00:04:29;;;;;;;31.80;26.60;;;;;;;12.86;72.38;101139.59;118340;1190;21868;-77
2021/09/03 00:06:58;;;;;;;31.20;27.80;;;;;;;12.84;72.32;101144.22;118298;1194;21794;-77
2021/09/03 00:09:27;;;;;;;37.10;29.70;;;;;;;12.82;72.44;101144.06;118264;1192;22096;-78
2021/09/03 00:11:56;;;;;;;31.10;27.60;;;;;;;12.79;72.30;101145.80;118361;1191;22079;-78
2021/09/03 00:14:25;;;;;;;32.60;28.80;;;;;;;12.72;72.24;101138.20;118288;1192;21789;-77
2021/09/03 00:16:54;;;;;;;30.10;24.70;;;;;;;12.70;72.32;101140.20;118307;1194;21802;-77
2021/09/03 00:19:22;;;;;;;29.10;24.00;;;;;;;12.63;72.30;101132.13;118390;1191;22102;-78
2021/09/03 00:21:55;;;;;;;29.70;25.20;;;;;;;12.59;72.37;101127.41;118341;1193;22098;-78
2021/09/03 00:24:24;;;;;;;28.40;25.30;;;;;;;12.59;72.43;101130.04;118307;1190;21800;-77
2021/09/03 00:26:53;;;;;;;31.50;26.30;;;;;;;12.53;72.43;101125.06;118354;1194;21794;-78
2021/09/03 00:29:22;;;;;;;28.50;23.80;;;;;;;12.48;72.46;101123.39;118193;1193;21888;-77
2021/09/03 00:31:51;;;;;;;30.10;24.80;;;;;;;12.48;72.38;101128.62;118187;1194;21862;-78
2021/09/03 00:34:20;;;;;;;27.90;23.30;;;;;;;12.40;72.47;101119.36;118199;1194;21832;-78
2021/09/03 00:36:49;;;;;;;29.50;23.20;;;;;;;12.37;72.53;101115.12;117975;1196;21866;-78
2021/09/03 00:39:18;;;;;;;26.20;22.80;;;;;;;12.36;72.67;101120.88;117975;1199;21810;-78
2021/09/03 00:41:47;;;;;;;30.50;23.40;;;;;;;12.32;72.77;101115.06;117969;1196;21758;-76
2021/09/03 00:44:16;;;;;;;29.00;22.60;;;;;;;12.32;72.84;101117.05;118009;1196;21864;-77
2021/09/03 00:46:45;;;;;;;25.80;22.20;;;;;;;12.27;72.86;101109.61;118024;1197;22238;-77
2021/09/03 00:49:14;;;;;;;28.80;23.60;;;;;;;12.21;72.78;101102.08;118018;1195;21814;-77
2021/09/03 00:51:44;;;;;;;24.70;22.10;;;;;;;12.19;72.68;101106.51;118072;1198;21818;-78
2021/09/03 00:54:13;;;;;;;28.70;23.00;;;;;;;12.15;72.77;101106.69;118080;1195;21847;-77
2021/09/03 00:56:42;;;;;;;23.90;20.70;;;;;;;12.13;72.89;101105.68;118263;1192;21798;-77
2021/09/03 00:59:12;;;;;;;24.40;20.80;;;;;;;12.12;73.18;101103.33;118271;1187;21808;-77
2021/09/03 01:01:41;;;;;;;28.50;22.30;;;;;;;12.12;73.30;101099.32;118312;1191;21792;-77
2021/09/03 01:04:10;;;;;;;24.80;20.60;;;;;;;12.13;73.26;101102.05;118371;1191;22267;-78
2021/09/03 01:06:39;;;;;;;25.60;20.40;;;;;;;12.12;73.26;101098.23;118299;1193;22152;-77
2021/09/03 01:09:08;;;;;;;28.10;21.70;;;;;;;12.11;73.17;101098.33;118325;1193;22068;-77
2021/09/03 01:11:37;;;;;;;28.30;20.10;;;;;;;12.09;73.13;101094.30;118312;1193;22069;-77
2021/09/03 01:14:06;;;;;;;25.80;19.90;;;;;;;12.08;73.14;101094.92;118337;1191;21823;-77
2021/09/03 01:16:35;;;;;;;25.00;20.40;;;;;;;12.10;73.25;101094.39;118314;1195;21805;-77
2021/09/03 01:19:06;;;;;;;22.30;19.50;;;;;;;12.03;73.09;101086.09;118221;1193;21875;-77
2021/09/03 01:21:35;;;;;;;23.40;18.20;;;;;;;12.02;73.08;101083.96;118317;1192;21825;-77
2021/09/03 01:24:04;;;;;;;21.40;18.10;;;;;;;11.98;73.02;101080.20;118177;1196;21834;-77
2021/09/03 01:26:33;;;;;;;22.80;18.80;;;;;;;11.97;73.14;101079.80;118154;1196;21818;-77
2021/09/03 01:29:02;;;;;;;27.30;17.90;;;;;;;11.97;73.21;101079.34;118201;1193;22246;-77
2021/09/03 01:31:31;;;;;;;24.40;18.00;;;;;;;11.96;73.14;101083.11;118204;1194;21837;-77
2021/09/03 01:34:00;;;;;;;24.60;18.50;;;;;;;11.95;72.98;101082.52;118163;1194;21840;-77
2021/09/03 01:36:30;;;;;;;21.00;18.70;;;;;;;11.91;72.96;101078.73;118164;1189;22055;-77
2021/09/03 01:39:00;;;;;;;21.90;17.40;;;;;;;11.87;72.92;101077.17;118193;1196;21730;-77
2021/09/03 01:41:29;;;;;;;25.40;18.10;;;;;;;11.84;72.92;101075.38;118208;1195;21844;-77
2021/09/03 01:43:58;;;;;;;22.40;18.00;;;;;;;11.81;73.10;101074.70;118358;1190;21815;-77
2021/09/03 01:46:27;;;;;;;26.90;17.70;;;;;;;11.81;73.18;101072.52;118373;1191;21756;-77
2021/09/03 01:48:56;;;;;;;22.30;18.50;;;;;;;11.80;73.15;101075.39;118375;1192;21773;-77
2021/09/03 01:51:25;;;;;;;22.10;18.00;;;;;;;11.79;73.12;101076.21;118510;1191;22222;-78
2021/09/03 01:53:54;;;;;;;21.80;18.10;;;;;;;11.77;73.07;101075.13;118285;1193;22289;-77
2021/09/03 01:56:22;;;;;;;22.20;18.10;;;;;;;11.72;72.94;101067.90;118349;1194;21808;-77
2021/09/03 01:58:52;;;;;;;21.70;17.70;;;;;;;11.70;72.86;101067.19;118498;1190;21826;-77
2021/09/03 02:01:21;;;;;;;21.00;17.10;;;;;;;11.68;72.89;101069.17;118375;1193;22102;-78
2021/09/03 02:03:50;;;;;;;21.90;17.70;;;;;;;11.65;73.05;101064.56;118489;1190;21837;-77
2021/09/03 02:06:19;;;;;;;21.10;17.50;;;;;;;11.64;73.13;101061.21;118509;1187;22227;-78
2021/09/03 02:08:48;;;;;;;20.90;17.10;;;;;;;11.64;73.09;101061.70;118492;1190;21803;-78
2021/09/03 02:11:17;;;;;;;27.10;16.80;;;;;;;11.59;73.06;101053.55;118505;1191;21824;-78
2021/09/03 02:13:46;;;;;;;22.50;17.80;;;;;;;11.59;73.05;101060.39;118371;1191;22231;-78
2021/09/03 02:16:15;;;;;;;21.10;16.40;;;;;;;11.58;73.05;101057.94;118419;1194;21775;-78
2021/09/03 02:18:44;;;;;;;23.10;18.10;;;;;;;11.53;72.90;101052.88;118442;1190;21681;-78
2021/09/03 02:21:13;;;;;;;26.20;18.10;;;;;;;11.51;72.94;101051.59;118310;1192;22366;-76
2021/09/03 02:23:42;;;;;;;21.60;16.70;;;;;;;11.48;72.99;101047.23;118311;1191;22237;-76
2021/09/03 02:26:10;;;;;;;23.70;17.20;;;;;;;11.43;73.07;101037.38;118340;1191;22111;-76
2021/09/03 02:28:39;;;;;;;19.50;16.80;;;;;;;11.42;73.13;101038.16;118414;1190;21762;-76
2021/09/03 02:31:08;;;;;;;19.70;16.20;;;;;;;11.41;73.24;101037.08;118357;1192;21788;-77
2021/09/03 02:33:37;;;;;;;21.30;17.50;;;;;;;11.41;73.40;101039.19;118408;1193;22276;-77
2021/09/03 02:36:07;;;;;;;19.10;15.70;;;;;;;11.41;73.42;101037.38;118416;1193;21817;-76
2021/09/03 02:38:36;;;;;;;25.50;17.70;;;;;;;11.41;73.61;101035.61;118382;1193;21828;-77
2021/09/03 02:41:05;;;;;;;26.30;17.90;;;;;;;11.39;73.75;101030.34;118335;1188;22294;-77
2021/09/03 02:43:35;;;;;;;22.30;17.10;;;;;;;11.39;73.68;101029.12;118371;1190;21861;-77
2021/09/03 02:46:04;;;;;;;18.80;15.90;;;;;;;11.39;73.80;101028.95;118512;1190;21834;-76
2021/09/03 02:48:33;;;;;;;22.30;16.40;;;;;;;11.40;73.83;101032.77;118307;1193;22201;-77
2021/09/03 02:51:02;;;;;;;20.50;16.80;;;;;;;11.40;73.76;101033.50;118329;1193;21775;-77
2021/09/03 02:53:31;;;;;;;20.60;17.00;;;;;;;11.36;73.73;101029.23;118384;1191;21815;-77
2021/09/03 02:56:00;;;;;;;22.60;17.20;;;;;;;11.34;73.70;101029.80;118421;1190;21803;-77
2021/09/03 02:58:29;;;;;;;25.60;17.70;;;;;;;11.35;73.69;101034.82;118393;1191;21785;-78
2021/09/03 03:00:58;;;;;;;23.30;17.20;;;;;;;11.32;73.49;101039.75;118468;1191;21804;-78
2021/09/03 03:03:27;;;;;;;24.80;17.00;;;;;;;11.27;73.36;101034.80;118096;1196;22226;-78
2021/09/03 03:05:56;;;;;;;21.10;16.90;;;;;;;11.24;73.45;101033.30;118253;1194;21818;-78
2021/09/03 03:08:25;;;;;;;21.80;17.30;;;;;;;11.21;73.38;101033.07;118231;1188;21825;-79
2021/09/03 03:10:54;;;;;;;26.30;17.50;;;;;;;11.18;73.37;101033.02;118259;1195;22131;-77
2021/09/03 03:13:28;;;;;;;21.80;17.70;;;;;;;11.18;73.33;101030.24;118280;1193;21761;-77
2021/09/03 03:15:57;;;;;;;25.40;18.70;;;;;;;11.16;73.33;101031.15;118226;1193;21825;-77
2021/09/03 03:18:27;;;;;;;25.80;17.80;;;;;;;11.13;73.38;101033.91;118173;1193;21822;-77
2021/09/03 03:20:55;;;;;;;22.20;17.40;;;;;;;11.09;73.40;101030.55;118322;1193;21845;-78
2021/09/03 03:23:24;;;;;;;28.40;17.90;;;;;;;11.05;73.44;101024.60;118511;1190;22070;-77
2021/09/03 03:25:54;;;;;;;22.60;17.00;;;;;;;11.03;73.50;101020.36;118345;1191;22096;-77
2021/09/03 03:28:23;;;;;;;24.20;16.60;;;;;;;11.02;73.61;101016.34;118346;1192;21783;-77
2021/09/03 03:30:52;;;;;;;25.70;18.30;;;;;;;11.02;73.67;101017.18;118402;1194;21771;-78
2021/09/03 03:33:25;;;;;;;20.60;16.90;;;;;;;10.99;73.65;101008.34;118409;1193;22168;-78
2021/09/03 03:35:53;;;;;;;28.00;24.50;;;;;;;10.97;73.57;101009.28;118463;1190;21686;-78
2021/09/03 03:38:22;;;;;;;31.50;20.90;;;;;;;10.91;73.46;101000.70;118532;1190;21814;-78
2021/09/03 03:40:51;;;;;;;23.40;16.30;;;;;;;10.88;73.56;100997.25;118364;1191;21773;-78
2021/09/03 03:43:20;;;;;;;21.70;17.20;;;;;;;10.88;73.73;100991.16;118491;1191;21793;-79
2021/09/03 03:45:49;;;;;;;24.10;15.70;;;;;;;10.87;73.65;100987.19;118238;1193;22140;-77
2021/09/03 03:48:18;;;;;;;24.10;17.50;;;;;;;10.83;73.53;100984.69;118447;1190;21799;-77
2021/09/03 03:50:47;;;;;;;22.90;16.60;;;;;;;10.82;73.68;100981.12;118335;1193;21817;-78
2021/09/03 03:53:16;;;;;;;21.30;16.70;;;;;;;10.86;73.93;100985.17;118351;1191;22333;-78
2021/09/03 03:55:44;;;;;;;22.60;16.50;;;;;;;10.84;74.05;100982.33;118375;1193;21784;-77
2021/09/03 03:58:13;;;;;;;30.40;16.70;;;;;;;10.82;74.14;100977.74;118433;1191;21772;-77
2021/09/03 04:00:43;;;;;;;24.80;17.10;;;;;;;10.83;74.18;100973.42;118346;1188;21790;-77
2021/09/03 04:03:13;;;;;;;21.70;16.00;;;;;;;10.84;74.22;100970.89;118378;1191;22274;-79
2021/09/03 04:05:42;;;;;;;18.50;15.40;;;;;;;10.86;74.20;100975.86;118421;1191;21679;-79
2021/09/03 04:08:11;;;;;;;20.90;15.80;;;;;;;10.82;74.07;100968.07;118229;1193;21873;-77
2021/09/03 04:10:40;;;;;;;26.10;17.30;;;;;;;10.80;73.96;100966.37;118377;1193;21802;-78
2021/09/03 04:13:09;;;;;;;21.60;15.60;;;;;;;10.79;74.02;100968.20;118265;1192;22271;-78
2021/09/03 04:15:38;;;;;;;20.80;15.60;;;;;;;10.81;74.01;100966.11;118362;1195;21803;-79
2021/09/03 04:18:07;;;;;;;21.00;14.30;;;;;;;10.81;74.07;100965.18;118329;1191;21805;-77
2021/09/03 04:20:36;;;;;;;20.70;15.70;;;;;;;10.79;74.06;100961.04;118373;1193;21798;-77
2021/09/03 04:23:08;;;;;;;19.10;15.00;;;;;;;10.78;74.00;100963.05;118446;1193;21854;-77
2021/09/03 04:25:37;;;;;;;;;;;;;;;10.77;74.03;100959.11;118324;1191;21775;-78
2021/09/03 04:28:07;;;;;;;20.30;14.00;;;;;;;10.66;73.90;100958.41;118322;1192;22253;-80
2021/09/03 04:30:36;;;;;;;20.00;14.30;;;;;;;10.53;73.64;100953.77;118467;1190;21797;-78
2021/09/03 04:33:04;;;;;;;20.60;14.80;;;;;;;10.46;73.82;100950.98;118374;1191;21677;-77
2021/09/03 04:35:33;;;;;;;20.60;15.70;;;;;;;10.44;74.20;100945.10;118393;1191;21789;-80
2021/09/03 04:38:02;;;;;;;29.40;16.90;;;;;;;10.46;74.57;100942.83;118412;1193;22068;-78
2021/09/03 04:40:31;;;;;;;21.30;14.90;;;;;;;10.51;74.66;100941.40;118329;1189;21801;-78
2021/09/03 04:43:00;;;;;;;21.70;15.30;;;;;;;10.57;74.68;100939.80;118305;1191;22088;-76
2021/09/03 04:45:29;;;;;;;19.30;14.90;;;;;;;10.63;74.70;100948.03;118356;1195;21807;-77
2021/09/03 04:47:58;;;;;;;23.20;16.40;;;;;;;10.62;74.55;100943.38;118354;1192;21815;-77
2021/09/03 04:50:27;;;;;;;20.00;13.60;;;;;;;10.67;74.67;100949.35;118370;1194;21793;-78
2021/09/03 04:52:56;;;;;;;22.80;15.10;;;;;;;10.70;74.89;100949.41;118375;1191;21770;-78
2021/09/03 04:55:25;;;;;;;20.00;14.10;;;;;;;10.78;75.05;100948.79;118355;1193;21816;-78
2021/09/03 04:57:53;;;;;;;21.60;15.50;;;;;;;10.82;75.00;100945.00;118408;1191;21815;-78
2021/09/03 05:00:22;;;;;;;20.00;15.50;;;;;;;10.89;74.96;100940.83;118451;1190;22143;-78
2021/09/03 05:02:51;;;;;;;20.20;15.30;;;;;;;10.94;74.91;100941.68;118362;1193;22252;-78
2021/09/03 05:05:20;;;;;;;24.60;16.30;;;;;;;11.02;74.90;100942.31;118381;1187;21780;-79
2021/09/03 05:07:49;;;;;;;20.50;16.50;;;;;;;11.07;74.89;100942.32;118334;1191;21858;-77
2021/09/03 05:10:19;;;;;;;26.30;16.40;;;;;;;11.11;74.95;100936.79;118441;1190;21727;-78
2021/09/03 05:12:47;;;;;;;24.60;16.20;;;;;;;11.19;74.99;100939.88;118328;1190;22042;-78
2021/09/03 05:15:18;;;;;;;24.40;16.70;;;;;;;11.28;74.96;100937.64;118406;1190;22071;-78
2021/09/03 05:17:50;;;;;;;19.90;15.40;;;;;;;11.33;74.88;100930.48;118288;1194;21850;-78
2021/09/03 05:20:19;;;;;;;19.90;15.80;;;;;;;11.38;74.80;100923.61;118360;1193;21781;-77
2021/09/03 05:22:48;;;;;;;20.20;15.50;;;;;;;11.42;74.90;100921.84;118151;1195;22215;-78
2021/09/03 05:25:17;;;;;;;24.30;14.90;;;;;;;11.51;74.91;100921.38;118141;1195;21780;-78
2021/09/03 05:27:46;;;;;;;27.20;16.90;;;;;;;11.57;74.97;100915.59;118059;1196;21818;-77
2021/09/03 05:30:15;;;;;;;24.60;17.60;;;;;;;11.62;74.94;100913.37;118001;1198;21858;-78
2021/09/03 05:32:46;;;;;;;23.90;16.60;;;;;;;11.70;74.90;100915.70;118062;1196;21779;-78
2021/09/03 05:35:15;;;;;;;24.10;18.10;;;;;;;11.78;74.96;100918.05;118128;1196;22275;-76
2021/09/03 05:37:44;;;;;;;29.10;18.60;;;;;;;11.90;75.12;100922.38;118188;1194;21807;-77
2021/09/03 05:40:14;;;;;;;24.60;18.20;;;;;;;11.98;75.14;100916.47;118180;1190;21846;-77
2021/09/03 05:42:43;;;;;;;23.50;17.90;;;;;;;12.13;75.19;100918.05;118461;1187;21887;-78
2021/09/03 05:45:12;;;;;;;22.40;16.20;;;;;;;12.21;75.02;100914.54;118243;1195;21823;-78
2021/09/03 05:47:45;;;;;;;34.80;30.90;;;;;;;12.37;75.09;100915.50;118440;1191;21675;-77
2021/09/03 05:50:16;;;;;;;24.70;20.10;;;;;;;12.53;75.10;100908.95;118344;1193;21850;-77
2021/09/03 05:52:46;;;;;;;25.00;18.10;;;;;;;12.68;75.15;100900.38;118347;1192;21792;-78
2021/09/03 05:55:15;;;;;;;26.00;17.80;;;;;;;12.90;75.26;100898.88;118351;1190;21825;-78
2021/09/03 05:57:44;;;;;;;22.20;15.50;;;;;;;13.12;75.11;100897.30;118452;1190;21781;-77
2021/09/03 06:00:13;;;;;;;30.80;17.60;;;;;;;13.42;75.46;100897.02;118383;1194;21811;-77
2021/09/03 06:02:42;;;;;;;24.40;15.80;;;;;;;13.78;75.58;100900.15;118353;1195;21836;-77
2021/09/03 06:05:11;;;;;;;22.20;14.40;;;;;;;14.23;75.68;100903.68;118413;1193;21798;-78
2021/09/03 06:07:40;;;;;;;19.70;14.50;;;;;;;14.70;75.32;100901.02;118440;1191;21961;-77
2021/09/03 06:10:11;;;;;;;23.30;12.60;;;;;;;15.21;74.21;100901.11;118281;1192;21836;-77
2021/09/03 06:12:40;;;;;;;15.10;11.00;;;;;;;15.73;73.33;100896.67;118359;1193;21781;-77
2021/09/03 06:15:10;;;;;;;16.20;10.20;;;;;;;16.27;71.96;100898.25;118340;1190;21809;-77
2021/09/03 06:17:39;;;;;;;13.20;9.30;;;;;;;16.81;70.20;100902.30;118336;1192;21829;-78
2021/09/03 06:20:10;;;;;;;13.60;8.40;;;;;;;17.25;68.73;100901.20;118456;1191;21805;-78
2021/09/03 06:22:39;;;;;;;14.70;9.20;;;;;;;17.79;67.29;100907.48;118319;1193;21775;-77
2021/09/03 06:25:09;;;;;;;14.50;8.30;;;;;;;18.18;65.59;100901.95;118340;1191;21812;-78
2021/09/03 06:27:38;;;;;;;12.20;8.10;;;;;;;18.64;64.07;100903.81;118255;1192;21850;-77
2021/09/03 06:30:07;;;;;;;11.30;8.00;;;;;;;18.96;61.57;100900.98;118304;1190;21828;-78
2021/09/03 06:32:36;;;;;;;13.30;7.50;;;;;;;19.18;59.89;100902.58;118338;1192;21792;-77
2021/09/03 06:36:08;;;;;;;8.90;8.00;;;;;;;19.71;59.33;100905.42;114845;1203;543886;-79
2021/09/03 06:38:37;;;;;;;9.80;7.70;;;;;;;19.99;58.70;100904.61;116520;1190;21894;-77
2021/09/03 06:41:06;;;;;;;10.30;6.90;;;;;;;20.30;57.61;100907.11;116520;1190;21890;-78
2021/09/03 06:43:35;;;;;;;9.10;7.30;;;;;;;20.54;56.29;100903.52;116563;1190;22830;-79
2021/09/03 06:46:04;;;;;;;7.70;6.60;;;;;;;20.78;55.71;100899.16;116508;1188;21867;-78
2021/09/03 06:48:33;;;;;;;10.30;8.10;;;;;;;21.00;54.46;100900.50;116542;1191;22346;-77
2021/09/03 06:51:02;;;;;;;7.90;6.60;;;;;;;21.14;53.38;100901.67;116810;1187;22785;-79
2021/09/03 06:53:31;;;;;;;9.10;6.90;;;;;;;21.29;53.17;100904.52;116812;1188;22905;-76
2021/09/03 06:55:59;;;;;;;7.60;6.50;;;;;;;21.51;53.02;100908.34;116841;1187;21931;-77
2021/09/03 06:58:28;;;;;;;11.20;7.50;;;;;;;21.67;51.81;100911.34;116814;1186;21892;-77
2021/09/03 07:00:57;;;;;;;10.20;7.30;;;;;;;21.83;51.89;100908.24;116788;1187;21877;-77
2021/09/03 07:03:26;;;;;;;8.00;6.90;;;;;;;22.05;51.04;100911.56;116766;1187;23750;-77
2021/09/03 07:05:55;;;;;;;10.90;7.10;;;;;;;22.19;50.15;100909.51;116821;1186;22806;-78
2021/09/03 07:08:24;;;;;;;10.30;6.70;;;;;;;22.24;49.41;100903.09;116822;1187;21878;-77
2021/09/03 07:10:53;;;;;;;9.80;6.80;;;;;;;22.30;49.34;100901.88;116809;1186;23466;-81
2021/09/03 07:13:21;;;;;;;10.70;7.80;;;;;;;22.36;49.09;100903.45;116813;1187;21896;-79
2021/09/03 07:15:51;;;;;;;8.80;6.60;;;;;;;22.51;49.27;100899.75;116845;1186;23453;-77
2021/09/03 07:18:19;;;;;;;15.00;6.40;;;;;;;22.66;48.78;100900.15;116784;1186;21883;-77
2021/09/03 07:20:49;;;;;;;7.70;6.60;;;;;;;22.89;48.97;100905.13;116814;1187;21893;-77
2021/09/03 07:23:18;;;;;;;6.20;5.30;;;;;;;23.10;48.03;100904.38;116799;1187;21881;-77
2021/09/03 07:25:47;;;;;;;8.20;5.80;;;;;;;23.27;47.70;100898.15;116634;1187;21982;-78
2021/09/03 07:28:16;;;;;;;9.70;5.40;;;;;;;23.48;47.32;100900.08;116786;1187;21885;-76
2021/09/03 07:30:45;;;;;;;12.90;5.70;;;;;;;23.71;46.82;100897.25;116775;1187;22807;-77
2021/09/03 07:33:14;;;;;;;6.10;5.40;;;;;;;23.92;45.72;100894.03;116848;1186;21893;-77
2021/09/03 07:35:45;;;;;;;8.50;5.00;;;;;;;24.07;44.87;100891.09;117105;1182;21886;-77
2021/09/03 07:38:15;;;;;;;9.20;5.10;;;;;;;24.17;43.77;100893.41;116886;1186;21887;-78
2021/09/03 07:40:45;;;;;;;5.80;4.80;;;;;;;24.21;43.74;100893.60;116824;1187;24167;-77
2021/09/03 07:43:15;;;;;;;6.30;4.60;;;;;;;24.27;43.41;100889.42;116933;1183;21901;-76
2021/09/03 07:45:44;;;;;;;5.90;5.30;;;;;;;24.32;43.23;100888.55;116871;1182;21887;-77
2021/09/03 07:48:13;;;;;;;5.40;4.70;;;;;;;24.39;42.74;100886.72;116938;1187;23641;-76
2021/09/03 07:50:42;;;;;;;9.10;5.10;;;;;;;24.46;42.62;100883.59;116924;1187;21888;-77
2021/09/03 07:53:11;;;;;;;8.90;5.80;;;;;;;24.51;42.13;100883.66;116842;1186;21916;-78
2021/09/03 07:55:46;;;;;;;10.30;6.80;;;;;;;24.49;41.92;100884.02;116841;1186;22923;-77
2021/09/03 07:58:16;;;;;;;10.20;6.70;;;;;;;24.45;42.35;100883.24;116849;1186;21892;-77
2021/09/03 08:00:45;;;;;;;10.10;6.90;;;;;;;24.50;42.66;100881.39;116829;1187;21992;-77
2021/09/03 08:03:14;;;;;;;9.10;6.70;;;;;;;24.56;42.75;100877.14;116830;1187;21876;-78
2021/09/03 08:05:44;;;;;;;9.00;6.50;;;;;;;24.61;42.78;100877.71;116798;1187;21882;-79
2021/09/03 08:08:13;;;;;;;9.40;7.30;;;;;;;24.69;43.07;100874.85;116861;1187;22980;-79
2021/09/03 08:10:42;;;;;;;7.90;7.10;;;;;;;24.77;43.08;100870.76;116772;1188;23208;-77
2021/09/03 08:13:12;;;;;;;9.40;7.40;;;;;;;24.82;43.12;100870.77;116752;1188;23088;-77
2021/09/03 08:15:42;;;;;;;9.70;8.70;;;;;;;24.84;43.12;100865.72;116774;1187;21890;-81
2021/09/03 08:18:11;;;;;;;10.50;7.90;;;;;;;24.83;43.49;100869.54;116858;1187;22790;-79
2021/09/03 08:20:42;;;;;;;11.80;9.20;;;;;;;24.86;43.80;100868.55;116803;1187;21900;-79
2021/09/03 08:23:12;;;;;;;11.00;9.90;;;;;;;24.87;43.82;100868.84;116856;1187;22170;-77
2021/09/03 08:25:41;;;;;;;14.10;10.80;;;;;;;24.88;44.21;100863.02;116886;1187;22029;-77
2021/09/03 08:28:10;;;;;;;12.20;10.40;;;;;;;24.95;44.21;100868.19;117132;1184;21884;-77
2021/09/03 08:30:39;;;;;;;21.80;10.90;;;;;;;25.01;44.01;100867.39;117099;1185;21879;-77
2021/09/03 08:33:08;;;;;;;16.40;11.70;;;;;;;25.04;43.78;100862.89;117149;1184;22598;-78
2021/09/03 08:35:37;;;;;;;13.30;11.70;;;;;;;24.97;43.62;100858.36;117114;1184;22998;-77
2021/09/03 08:38:06;;;;;;;12.90;11.50;;;;;;;24.88;43.83;100853.77;117118;1184;22724;-76
2021/09/03 08:40:37;;;;;;;14.80;12.30;;;;;;;24.73;43.93;100847.36;117148;1184;21885;-78
2021/09/03 08:43:07;;;;;;;;;;;;;;;24.64;44.63;100844.64;117097;1184;21872;-78
2021/09/03 08:45:37;;;;;;;12.90;11.20;;;;;;;24.57;45.20;100838.66;116740;1188;21887;-77
2021/09/03 08:48:07;;;;;;;17.20;11.90;;;;;;;24.63;45.40;100834.15;116489;1190;23537;-77
2021/09/03 08:50:37;;;;;;;14.10;11.60;;;;;;;24.76;45.21;100835.08;116605;1191;22727;-76
2021/09/03 08:53:06;;;;;;;14.00;10.90;;;;;;;24.87;44.71;100832.68;116565;1190;22099;-77
2021/09/03 08:55:35;;;;;;;14.60;11.70;;;;;;;24.94;44.69;100830.50;116543;1189;21890;-78
2021/09/03 08:58:03;;;;;;;15.80;12.40;;;;;;;25.01;44.23;100831.50;116647;1188;21896;-77
2021/09/03 09:00:34;;;;;;;15.30;12.40;;;;;;;25.11;44.28;100833.48;116697;1189;21896;-77
2021/09/03 09:03:18;;;;;;;;;;;;;;;25.22;44.13;100834.75;116748;1188;22449;-76
2021/09/03 09:05:56;;;;;;;13.80;11.60;;;;;;;25.17;43.85;100834.73;117166;1184;23537;-77
2021/09/03 09:08:28;;;;;;;19.20;11.60;;;;;;;25.24;44.62;100833.52;117160;1184;22621;-76
2021/09/03 09:11:03;;;;;;;10.30;9.30;;;;;;;25.43;44.37;100833.23;117191;1184;21878;-77
2021/09/03 09:13:43;;;;;;;9.60;8.60;;;;;;;25.54;43.71;100825.89;117005;1185;21880;-77
2021/09/03 09:16:18;;;;;;;10.80;8.40;;;;;;;25.53;42.65;100824.91;116945;1186;21888;-76
2021/09/03 09:18:55;;;;;;;9.80;8.80;;;;;;;25.45;42.56;100824.39;117148;1184;21868;-77
2021/09/03 09:21:32;;;;;;;9.20;8.00;;;;;;;25.40;42.89;100822.99;117139;1184;21878;-77
2021/09/03 09:24:13;;;;;;;11.30;7.90;;;;;;;25.38;42.61;100821.73;117125;1184;21894;-77
2021/09/03 09:26:53;;;;;;;;;;;;;;;25.39;42.79;100823.20;116981;1184;21829;-76
2021/09/03 09:29:35;;;;;;;10.30;7.60;;;;;;;25.39;42.84;100824.77;116899;1184;21895;-77
2021/09/03 09:32:12;;;;;;;11.20;8.40;;;;;;;25.33;42.24;100825.36;117155;1185;21907;-76
2021/09/03 09:34:43;;;;;;;13.00;9.50;;;;;;;25.21;42.18;100825.60;117039;1184;22851;-76
2021/09/03 09:37:18;;;;;;;9.90;7.60;;;;;;;25.08;42.60;100815.04;117195;1184;22854;-79
2021/09/03 09:39:57;;;;;;;10.80;9.30;;;;;;;25.19;43.45;100812.54;117146;1185;22191;-77
2021/09/03 09:42:32;;;;;;;19.20;9.80;;;;;;;25.34;42.64;100813.25;117195;1184;23440;-77
2021/09/03 09:45:11;;;;;;;10.70;9.40;;;;;;;25.40;41.95;100816.13;117027;1184;21912;-78
2021/09/03 09:47:42;;;;;;;10.60;9.50;;;;;;;25.36;41.89;100808.41;117192;1186;21915;-77
2021/09/03 09:50:42;;;;;;;;;;;;;;;25.43;42.08;100806.25;116994;1184;22877;-77
2021/09/03 09:53:16;;;;;;;12.90;9.80;;;;;;;25.47;41.92;100803.59;116648;1191;21884;-77
2021/09/03 09:55:46;;;;;;;13.10;10.50;;;;;;;25.52;41.66;100802.39;116618;1190;21884;-76
2021/09/03 09:58:15;;;;;;;13.60;10.40;;;;;;;25.48;41.55;100800.84;116700;1188;21901;-77
2021/09/03 10:00:44;;;;;;;12.80;10.50;;;;;;;25.44;41.84;100797.55;116681;1190;21878;-78
2021/09/03 10:03:17;;;;;;;14.50;10.50;;;;;;;25.51;42.21;100792.54;116601;1190;22951;-78
2021/09/03 10:05:47;;;;;;;10.20;9.10;;;;;;;25.61;42.00;100788.95;116669;1190;23542;-77
2021/09/03 10:08:16;;;;;;;11.60;9.40;;;;;;;25.53;41.09;100790.07;116650;1188;21877;-78
2021/09/03 10:10:45;;;;;;;14.20;9.50;;;;;;;25.34;41.26;100785.77;116657;1188;23501;-77
2021/09/03 10:13:14;;;;;;;12.90;8.90;;;;;;;25.31;41.92;100783.90;116196;1193;22936;-78
2021/09/03 10:15:44;;;;;;;11.00;9.00;;;;;;;25.43;41.95;100782.13;116300;1192;21896;-77
2021/09/03 10:28:26;;;;;;;15.20;9.60;;;;;;;24.45;42.87;100773.73;115545;1198;543794;-76
2021/09/03 10:31:08;;;;;;;10.80;9.60;;;;;;;24.55;43.42;100767.98;116734;1189;22904;-77
2021/09/03 10:33:39;;;;;;;13.50;9.10;;;;;;;24.76;43.11;100763.41;116724;1189;23537;-77
2021/09/03 10:36:08;;;;;;;13.40;9.10;;;;;;;25.02;43.23;100757.14;116915;1188;21874;-77
2021/09/03 10:38:43;;;;;;;12.90;8.90;;;;;;;25.28;42.88;100755.70;116969;1186;21892;-79
2021/09/03 10:41:49;;;;;;;10.10;8.40;;;;;;;25.48;42.03;100757.02;116912;1187;21886;-80
2021/09/03 10:44:18;;;;;;;12.20;9.00;;;;;;;25.57;41.39;100754.13;116952;1187;22844;-81
2021/09/03 10:46:47;;;;;;;12.60;7.90;;;;;;;25.59;41.21;100748.73;116393;1193;23544;-82
2021/09/03 10:49:27;;;;;;;11.70;7.90;;;;;;;25.48;40.92;100750.96;116526;1193;21924;-81
2021/09/03 10:52:09;;;;;;;10.80;7.90;;;;;;;25.38;41.46;100741.63;116409;1193;21914;-82
2021/09/03 10:54:47;;;;;;;11.80;8.00;;;;;;;25.38;41.78;100739.83;116566;1193;21894;-81
2021/09/03 10:57:16;;;;;;;10.40;8.30;;;;;;;25.31;41.36;100735.98;116397;1193;22206;-82
2021/09/03 11:00:15;;;;;;;12.10;7.40;;;;;;;25.16;41.25;100733.52;116389;1194;23474;-83
2021/09/03 11:02:45;;;;;;;10.90;7.80;;;;;;;24.94;41.61;100728.13;116202;1196;23681;-82
2021/09/03 11:05:15;;;;;;;11.70;8.00;;;;;;;24.70;41.79;100723.14;116502;1194;22616;-83
2021/09/03 11:07:46;;;;;;;10.70;8.10;;;;;;;24.46;42.19;100722.54;116785;1188;21874;-82
2021/09/03 11:10:21;;;;;;;13.20;8.50;;;;;;;24.19;42.51;100712.64;117361;1187;21877;-83
2021/09/03 11:12:53;;;;;;;8.60;7.70;;;;;;;23.95;43.18;100710.80;116554;1191;21876;-82
2021/09/03 11:15:29;;;;;;;9.20;7.30;;;;;;;23.79;43.58;100711.27;116740;1190;22284;-82
2021/09/03 11:18:09;;;;;;;10.00;7.00;;;;;;;23.67;44.08;100706.38;116558;1193;22798;-82
2021/09/03 11:20:38;;;;;;;9.20;7.60;;;;;;;23.58;44.39;100705.84;116407;1193;21885;-82
2021/09/03 11:23:07;;;;;;;10.80;7.40;;;;;;;23.51;44.70;100701.08;116174;1194;22064;-83
2021/09/03 11:25:36;;;;;;;11.60;8.50;;;;;;;23.43;44.85;100696.91;116184;1196;21910;-82
2021/09/03 11:28:05;;;;;;;14.10;7.10;;;;;;;23.35;44.97;100700.00;116059;1196;23449;-83
2021/09/03 11:30:34;;;;;;;11.90;7.80;;;;;;;23.22;44.94;100698.22;116143;1197;24234;-82
2021/09/03 11:33:04;;;;;;;13.00;7.40;;;;;;;23.10;45.28;100694.20;116464;1195;21900;-82